createdAt,value
2022-10-13T00:01:57.000Z,979.5
2022-10-13T00:32:02.000Z,979.4
2022-10-13T01:02:04.000Z,979.4
2022-10-13T01:32:07.000Z,979.1
2022-10-13T02:02:09.000Z,979.0
2022-10-13T02:32:20.596Z,978.8
2022-10-13T03:02:21.000Z,979.0
2022-10-13T03:32:24.724Z,978.6
2022-10-13T04:02:26.557Z,978.7
2022-10-13T04:32:28.676Z,978.7
2022-10-13T05:02:38.000Z,978.6
2022-10-13T05:32:39.000Z,978.6
2022-10-13T06:02:46.725Z,978.6
2022-10-13T06:32:55.000Z,978.5
2022-10-13T07:03:00.000Z,978.5
2022-10-13T07:33:02.000Z,978.6
2022-10-13T08:03:04.000Z,978.4
2022-10-13T08:33:15.528Z,978.2
2022-10-13T09:03:19.141Z,978
2022-10-13T09:33:29.167Z,978
2022-10-13T10:03:31.256Z,977.6
2022-10-13T10:33:41.189Z,977.7
2022-10-13T11:03:43.176Z,977.3
2022-10-13T11:33:46.264Z,977.1
2022-10-13T12:03:48.000Z,976.5
2022-10-13T12:33:48.393Z,976
2022-10-13T13:03:51.295Z,975.7
2022-10-13T13:33:53.871Z,975.8
2022-10-13T14:03:54.865Z,975.6
2022-10-13T14:33:57.901Z,975.7
2022-10-13T15:04:00.156Z,975.4
2022-10-13T15:34:04.014Z,975.6
2022-10-13T16:04:09.004Z,975.6
2022-10-13T16:34:13.000Z,975.7
2022-10-13T17:04:16.064Z,975.6
2022-10-13T17:34:18.042Z,975.9
2022-10-13T18:04:24.020Z,976
2022-10-13T18:34:27.069Z,975.9
2022-10-13T19:04:29.046Z,975.8
2022-10-13T19:34:36.465Z,976
2022-10-13T20:04:40.489Z,976
2022-10-13T20:34:44.521Z,976.2
2022-10-13T21:04:52.563Z,976.1
2022-10-13T21:34:53.608Z,976.2
2022-10-13T22:04:54.000Z,976.2
2022-10-13T22:35:04.544Z,976.3
2022-10-13T23:05:13.000Z,976.2
2022-10-13T23:35:23.617Z,976
